Time;durP1;ratioP1;P1;durP2;ratioP2;P2;SDS_P1;SDS_P2;PMS_P1;PMS_P2;Temp;Humidity;BMP_temperature;BMP_pressure;BME280_temperature;BME280_humidity;BME280_pressure;Samples;Min_cycle;Max_cycle;Signal;HPM_P1;HPM_P2
2021/08/25 00:02:19;;;;;;;3.50;2.43;;;;;;;14.08;78.28;101415.59;5042874;28;20692;-77
2021/08/25 00:04:46;;;;;;;2.47;2.27;;;;;;;14.07;77.63;101433.09;5042305;28;20235;-79
2021/08/25 00:07:12;;;;;;;2.77;2.53;;;;;;;14.08;78.51;101410.34;5043567;28;20433;-76
2021/08/25 00:09:41;;;;;;;4.50;2.90;;;;;;;13.96;79.30;101387.78;5043383;28;20221;-78
2021/08/25 00:12:10;;;;;;;3.97;2.67;;;;;;;13.82;80.30;101339.94;5042828;28;20281;-77
2021/08/25 00:14:37;;;;;;;3.23;2.83;;;;;;;13.90;79.21;101369.53;5042433;28;20743;-77
2021/08/25 00:17:05;;;;;;;2.80;2.60;;;;;;;13.95;78.57;101390.44;5042782;28;20283;-78
2021/08/25 00:19:32;;;;;;;3.30;2.83;;;;;;;13.91;78.91;101387.00;5043248;28;20221;-78
2021/08/25 00:21:59;;;;;;;5.80;2.80;;;;;;;13.83;79.62;101347.75;5041991;28;20259;-79
2021/08/25 00:24:25;;;;;;;3.40;2.80;;;;;;;13.74;79.97;101344.44;5042974;28;20661;-79
2021/08/25 00:26:52;;;;;;;2.90;2.67;;;;;;;13.72;79.66;101349.72;5042450;28;20448;-76
2021/08/25 00:29:18;;;;;;;3.13;2.50;;;;;;;13.77;78.61;101374.09;5041413;28;20672;-76
2021/08/25 00:31:44;;;;;;;3.00;2.50;;;;;;;13.76;78.42;101403.88;5042391;28;20262;-78
2021/08/25 00:34:11;;;;;;;4.60;3.10;;;;;;;13.71;78.33;101410.94;5041571;28;20245;-78
2021/08/25 00:36:39;;;;;;;6.87;2.53;;;;;;;13.07;81.02;101327.13;5043009;28;20661;-77
2021/08/25 00:39:07;;;;;;;3.77;2.77;;;;;;;13.08;81.62;101278.16;5042857;28;20212;-78
2021/08/25 00:41:33;;;;;;;3.40;2.90;;;;;;;13.25;81.42;101301.50;5041499;28;20710;-77
2021/08/25 00:44:00;;;;;;;2.97;2.67;;;;;;;13.27;81.39;101295.34;5042298;28;20591;-76
2021/08/25 00:46:27;;;;;;;5.30;3.07;;;;;;;13.37;80.76;101314.44;5042442;28;20204;-78
2021/08/25 00:48:54;;;;;;;3.77;2.60;;;;;;;13.43;80.57;101332.69;5042632;28;20216;-78
2021/08/25 00:51:22;;;;;;;3.93;2.87;;;;;;;13.46;79.55;101358.88;5042667;28;20229;-77
2021/08/25 00:53:51;;;;;;;5.47;3.23;;;;;;;13.50;79.61;101372.81;5041948;28;20261;-76
2021/08/25 00:56:17;;;;;;;4.87;2.90;;;;;;;13.53;79.51;101375.38;5040928;28;20640;-77
2021/08/25 00:58:44;;;;;;;4.53;3.13;;;;;;;13.58;79.61;101362.22;5042157;28;20263;-79
2021/08/25 01:01:16;;;;;;;3.47;3.17;;;;;;;13.59;79.15;101364.78;5041851;28;20225;-78
2021/08/25 01:03:47;;;;;;;3.27;2.53;;;;;;;13.58;79.01;101364.84;5042028;28;20294;-78
2021/08/25 01:06:17;;;;;;;3.63;3.10;;;;;;;13.54;80.12;101361.41;5042720;28;20278;-78
2021/08/25 01:08:44;;;;;;;5.27;4.07;;;;;;;13.44;79.57;101357.19;5042794;28;20205;-77
2021/08/25 01:11:11;;;;;;;6.17;3.50;;;;;;;13.27;79.75;101358.25;5042007;28;20232;-78
2021/08/25 01:13:39;;;;;;;4.77;3.10;;;;;;;13.24;80.64;101336.47;5041034;28;20216;-77
2021/08/25 01:16:07;;;;;;;4.43;3.17;;;;;;;13.21;80.57;101321.66;5040158;28;20216;-77
2021/08/25 01:18:34;;;;;;;3.67;3.37;;;;;;;13.14;80.52;101317.41;5041173;28;20283;-77
2021/08/25 01:21:01;;;;;;;3.23;2.93;;;;;;;13.02;81.44;101305.38;5041178;28;20240;-78
2021/08/25 01:23:28;;;;;;;6.30;3.57;;;;;;;12.97;81.46;101294.06;5041664;28;20277;-77
2021/08/25 01:25:57;;;;;;;4.03;3.20;;;;;;;12.87;81.92;101269.75;5041079;28;21111;-77
2021/08/25 01:28:27;;;;;;;4.27;3.87;;;;;;;12.79;82.35;101260.28;5040621;28;20281;-76
2021/08/25 01:30:56;;;;;;;10.03;4.30;;;;;;;12.83;82.57;101251.50;5040580;28;20228;-76
2021/08/25 01:33:23;;;;;;;3.90;3.50;;;;;;;12.75;82.75;101243.75;5041353;28;20205;-77
2021/08/25 01:35:50;;;;;;;3.70;3.40;;;;;;;12.49;83.74;101213.56;5041206;28;20262;-79
2021/08/25 01:38:23;;;;;;;5.27;3.73;;;;;;;12.20;84.97;101166.84;5039817;28;20702;-77
2021/08/25 01:40:50;;;;;;;5.43;3.90;;;;;;;12.10;85.55;101139.06;5040699;28;20226;-77
2021/08/25 01:43:16;;;;;;;4.70;3.73;;;;;;;12.05;85.93;101127.78;5039497;28;20219;-78
2021/08/25 01:45:42;;;;;;;4.63;4.10;;;;;;;11.96;86.81;101114.88;5040570;28;20239;-77
2021/08/25 01:48:10;;;;;;;6.93;3.80;;;;;;;12.01;86.84;101105.19;5041006;28;20257;-77
2021/08/25 01:50:36;;;;;;;4.53;3.40;;;;;;;12.07;86.41;101105.09;5040457;28;20296;-77
2021/08/25 01:53:03;;;;;;;4.87;4.30;;;;;;;12.02;86.64;101110.41;5040373;28;20483;-74
2021/08/25 01:55:29;;;;;;;4.80;3.90;;;;;;;12.11;86.19;101106.81;5041199;28;20583;-78
2021/08/25 01:57:56;;;;;;;4.87;4.47;;;;;;;12.21;86.27;101113.63;5041309;28;20643;-77
2021/08/25 02:00:22;;;;;;;5.10;4.50;;;;;;;12.34;85.88;101123.91;5040140;28;20778;-76
2021/08/25 02:02:49;;;;;;;5.83;3.77;;;;;;;12.42;85.56;101146.44;5040037;28;20208;-78
2021/08/25 02:05:16;;;;;;;4.57;4.17;;;;;;;12.26;85.36;101156.28;5040083;28;20211;-78
2021/08/25 02:07:43;;;;;;;5.03;3.90;;;;;;;12.37;85.62;101150.91;5040559;28;20225;-78
2021/08/25 02:10:10;;;;;;;5.50;3.97;;;;;;;12.46;85.26;101157.75;5040253;28;20714;-77
2021/08/25 02:12:36;;;;;;;5.13;4.13;;;;;;;12.32;85.61;101160.56;5040492;28;20208;-77
2021/08/25 02:15:03;;;;;;;4.27;3.87;;;;;;;12.23;85.80;101130.16;5041031;28;20206;-76
2021/08/25 02:17:29;;;;;;;5.33;4.20;;;;;;;12.04;86.83;101106.00;5040546;28;20271;-76
2021/08/25 02:19:55;;;;;;;4.53;3.57;;;;;;;11.87;87.44;101084.41;5040366;28;20656;-78
2021/08/25 02:22:23;;;;;;;5.07;4.67;;;;;;;11.79;87.82;101075.81;5039809;28;20273;-78
2021/08/25 02:24:49;;;;;;;4.40;4.00;;;;;;;11.64;88.17;101069.91;5039355;28;20309;-78
2021/08/25 02:27:16;;;;;;;3.50;3.20;;;;;;;11.57;88.77;101052.56;5040102;28;20277;-77
2021/08/25 02:29:42;;;;;;;4.60;4.13;;;;;;;11.53;88.59;101051.75;5040228;28;20320;-76
2021/08/25 02:32:09;;;;;;;5.50;3.70;;;;;;;11.42;89.11;101042.31;5039681;28;20215;-77
2021/08/25 02:34:35;;;;;;;5.70;4.27;;;;;;;11.35;89.84;101024.97;5040516;28;20692;-77
2021/08/25 02:37:01;;;;;;;5.53;3.70;;;;;;;11.38;89.98;101031.03;5040400;28;20253;-78
2021/08/25 02:39:29;;;;;;;4.90;4.40;;;;;;;11.43;90.00;101028.34;5040540;28;20205;-76
2021/08/25 02:41:56;;;;;;;4.70;3.63;;;;;;;11.52;89.46;101043.94;5039648;28;20211;-78
2021/08/25 02:44:22;;;;;;;4.60;4.20;;;;;;;11.64;89.41;101045.50;5039249;28;20219;-78
2021/08/25 02:46:48;;;;;;;5.67;4.27;;;;;;;11.76;89.00;101062.78;5040055;28;20292;-77
2021/08/25 02:49:15;;;;;;;4.27;3.83;;;;;;;11.84;88.42;101080.09;5040518;28;20265;-76
2021/08/25 02:51:41;;;;;;;4.07;3.77;;;;;;;11.89;88.23;101091.41;5042440;28;20302;-78
2021/08/25 02:54:08;;;;;;;4.47;4.07;;;;;;;11.94;88.42;101095.72;5042123;28;20947;-78
2021/08/25 02:56:36;;;;;;;5.27;3.57;;;;;;;11.95;88.34;101100.88;5043846;28;20689;-77
2021/08/25 02:59:02;;;;;;;4.93;4.27;;;;;;;11.88;88.30;101102.72;5044608;28;20238;-78
2021/08/25 03:01:29;;;;;;;4.67;3.73;;;;;;;11.86;88.41;101093.16;5043816;28;20740;-77
2021/08/25 03:03:55;;;;;;;4.57;4.17;;;;;;;11.86;88.12;101098.38;5043352;28;20626;-77
2021/08/25 03:06:21;;;;;;;4.23;3.80;;;;;;;11.88;88.45;101094.84;5043710;28;20596;-78
2021/08/25 03:08:48;;;;;;;4.50;4.10;;;;;;;11.85;87.92;101120.19;5043432;28;20204;-76
2021/08/25 03:11:14;;;;;;;4.40;4.10;;;;;;;11.90;87.66;101124.50;5043514;28;20265;-78
2021/08/25 03:13:42;;;;;;;4.80;4.33;;;;;;;11.95;87.12;101149.75;5043598;28;20214;-77
2021/08/25 03:16:09;;;;;;;5.40;3.83;;;;;;;11.99;86.78;101156.66;5042914;28;20211;-77
2021/08/25 03:18:36;;;;;;;4.20;3.83;;;;;;;11.89;86.83;101167.28;5043875;28;20231;-77
2021/08/25 03:21:02;;;;;;;4.63;4.10;;;;;;;11.81;87.27;101132.44;5044226;28;20274;-77
2021/08/25 03:23:28;;;;;;;7.37;3.90;;;;;;;11.75;87.94;101113.34;5043229;28;20250;-78
2021/08/25 03:25:55;;;;;;;4.17;3.73;;;;;;;11.64;88.13;101101.28;5043330;28;20239;-77
2021/08/25 03:28:21;;;;;;;6.50;3.87;;;;;;;11.56;88.59;101089.19;5043508;28;20265;-77
2021/08/25 03:30:49;;;;;;;4.03;3.73;;;;;;;11.48;88.94;101077.09;5041680;28;20252;-77
2021/08/25 03:33:15;;;;;;;4.60;3.83;;;;;;;11.49;89.34;101065.72;5042998;28;20246;-77
2021/08/25 03:35:41;;;;;;;6.47;3.73;;;;;;;11.50;89.17;101069.22;5043824;28;20258;-77
2021/08/25 03:38:08;;;;;;;4.43;4.03;;;;;;;11.53;89.16;101066.56;5043222;28;20275;-77
2021/08/25 03:40:34;;;;;;;4.67;3.97;;;;;;;11.61;88.92;101080.38;5043654;28;20259;-76
2021/08/25 03:43:01;;;;;;;4.37;3.90;;;;;;;11.63;89.40;101069.91;5042809;28;20207;-78
2021/08/25 03:45:27;;;;;;;4.97;4.00;;;;;;;11.68;88.55;101083.81;5043403;28;20250;-79
2021/08/25 03:47:55;;;;;;;4.00;3.67;;;;;;;11.70;88.57;101095.13;5043397;28;20497;-78
2021/08/25 03:50:21;;;;;;;4.10;3.70;;;;;;;11.73;88.34;101111.63;5043413;28;20668;-78
2021/08/25 03:52:47;;;;;;;4.10;3.70;;;;;;;11.76;88.01;101115.09;5042960;28;20212;-78
2021/08/25 03:55:14;;;;;;;4.60;4.13;;;;;;;11.73;88.27;101105.53;5042436;28;20207;-77
2021/08/25 03:57:40;;;;;;;4.77;3.40;;;;;;;11.73;88.16;101100.28;5043148;28;20231;-78
2021/08/25 04:00:07;;;;;;;4.57;3.87;;;;;;;11.73;88.07;101114.25;5043059;28;20285;-77
2021/08/25 04:02:34;;;;;;;4.33;3.87;;;;;;;11.72;88.24;101128.19;5043165;28;20693;-77
2021/08/25 04:05:01;;;;;;;3.83;3.47;;;;;;;11.77;87.79;101128.13;5043520;28;20246;-78
2021/08/25 04:07:28;;;;;;;5.77;4.23;;;;;;;11.78;87.61;101145.56;5043067;28;20206;-78
2021/08/25 04:09:54;;;;;;;4.43;3.27;;;;;;;11.82;87.40;101142.03;5042840;28;20714;-79
2021/08/25 04:12:20;;;;;;;5.93;3.77;;;;;;;11.86;87.19;101156.81;5041446;28;20465;-78
2021/08/25 04:14:47;;;;;;;3.53;3.23;;;;;;;11.80;87.76;101146.41;5043336;28;20214;-78
2021/08/25 04:17:13;;;;;;;4.17;3.67;;;;;;;11.77;87.91;101141.22;5042856;28;20208;-76
2021/08/25 04:19:39;;;;;;;4.03;3.63;;;;;;;11.78;88.17;101140.34;5043337;28;20253;-78
2021/08/25 04:22:07;;;;;;;4.40;3.53;;;;;;;11.72;88.36;101122.97;5043079;28;20242;-78
2021/08/25 04:24:33;;;;;;;6.37;3.53;;;;;;;11.68;89.02;101116.06;5042594;28;20238;-78
2021/08/25 04:27:00;;;;;;;3.73;3.43;;;;;;;11.68;89.45;101097.75;5042409;28;20688;-76
2021/08/25 04:29:26;;;;;;;6.73;3.33;;;;;;;11.75;88.92;101119.44;5042221;28;20583;-77
2021/08/25 04:31:52;;;;;;;4.10;3.27;;;;;;;11.86;89.30;101109.72;5042279;28;20277;-77
2021/08/25 04:34:19;;;;;;;4.07;3.67;;;;;;;11.91;88.39;101121.03;5043499;28;20220;-79
2021/08/25 04:36:45;;;;;;;4.20;3.27;;;;;;;11.94;87.94;101159.34;5043485;28;20211;-77
2021/08/25 04:39:13;;;;;;;3.57;3.27;;;;;;;11.94;88.15;101137.56;5042877;28;20262;-77
2021/08/25 04:41:39;;;;;;;4.27;3.67;;;;;;;12.01;87.69;101147.03;5041680;28;20294;-77
2021/08/25 04:44:06;;;;;;;4.97;3.23;;;;;;;12.11;87.72;101152.16;5043724;28;20219;-77
2021/08/25 04:46:32;;;;;;;3.93;3.50;;;;;;;12.16;87.46;101183.47;5043828;28;20274;-78
2021/08/25 04:48:59;;;;;;;4.10;3.73;;;;;;;12.14;86.40;101206.19;5042981;28;20211;-77
2021/08/25 04:51:25;;;;;;;3.87;3.50;;;;;;;12.19;85.24;101240.16;5042772;28;20227;-78
2021/08/25 04:53:52;;;;;;;5.00;3.47;;;;;;;12.06;85.57;101236.84;5041493;28;20203;-77
2021/08/25 04:56:20;;;;;;;3.57;3.27;;;;;;;12.04;86.15;101213.28;5042710;28;20216;-76
2021/08/25 04:58:46;;;;;;;4.90;3.37;;;;;;;12.20;86.07;101210.47;5042079;28;20373;-78
2021/08/25 05:01:12;;;;;;;4.13;3.70;;;;;;;12.29;84.38;101263.59;5042399;28;20235;-76
2021/08/25 05:03:39;;;;;;;3.33;2.97;;;;;;;12.36;82.99;101339.44;5041916;28;20212;-76
2021/08/25 05:06:09;;;;;;;4.67;3.60;;;;;;;12.31;82.66;101357.81;5041897;28;20208;-78
2021/08/25 05:08:36;;;;;;;3.93;3.57;;;;;;;12.26;82.70;101349.13;5042490;28;20785;-79
2021/08/25 05:11:03;;;;;;;3.97;3.30;;;;;;;12.15;83.00;101332.69;5043041;28;20289;-78
2021/08/25 05:13:31;;;;;;;6.47;3.47;;;;;;;11.86;84.02;101278.91;5042375;28;20208;-78
2021/08/25 05:15:59;;;;;;;4.00;3.53;;;;;;;11.62;84.95;101239.03;5041938;28;20268;-77
2021/08/25 05:18:25;;;;;;;4.30;3.87;;;;;;;11.22;87.00;101168.84;5042257;28;20231;-77
2021/08/25 05:20:51;;;;;;;4.60;3.70;;;;;;;11.03;88.48;101105.44;5040962;28;20304;-77
2021/08/25 05:23:17;;;;;;;5.23;3.73;;;;;;;11.01;89.16;101075.88;5041001;28;20582;-77
2021/08/25 05:25:44;;;;;;;4.47;4.00;;;;;;;10.89;90.03;101055.09;5041714;28;20735;-78
2021/08/25 05:28:10;;;;;;;4.60;4.00;;;;;;;10.88;90.28;101040.31;5041603;28;20206;-77
2021/08/25 05:30:38;;;;;;;4.70;4.20;;;;;;;10.89;90.19;101045.50;5041892;28;20304;-77
2021/08/25 05:33:04;;;;;;;4.20;3.80;;;;;;;10.87;90.20;101046.41;5041304;28;20260;-78
2021/08/25 05:35:30;;;;;;;5.20;4.03;;;;;;;10.83;90.49;101035.13;5041275;28;20283;-78
2021/08/25 05:37:57;;;;;;;6.43;3.83;;;;;;;10.83;90.91;101034.28;5040261;28;20258;-76
2021/08/25 05:40:23;;;;;;;6.17;3.63;;;;;;;10.81;90.82;101022.97;5041207;28;20224;-78
2021/08/25 05:42:49;;;;;;;4.57;3.50;;;;;;;10.72;91.36;101021.31;5040649;28;20312;-77
2021/08/25 05:45:16;;;;;;;5.73;4.07;;;;;;;10.70;91.62;101002.19;5041190;28;20208;-76
2021/08/25 05:47:43;;;;;;;4.80;4.20;;;;;;;10.75;91.69;101013.47;5041671;28;20674;-77
2021/08/25 05:50:10;;;;;;;4.13;3.73;;;;;;;10.84;91.41;101022.94;5041575;28;20274;-77
2021/08/25 05:52:37;;;;;;;4.83;4.43;;;;;;;10.84;91.57;101022.94;5040555;28;20201;-78
2021/08/25 05:55:04;;;;;;;5.93;3.70;;;;;;;10.94;91.17;101032.41;5041053;28;20219;-76
2021/08/25 05:57:31;;;;;;;4.47;4.07;;;;;;;11.00;90.76;101055.88;5041429;28;20266;-77
2021/08/25 05:59:57;;;;;;;5.50;4.67;;;;;;;11.14;90.37;101068.78;5040723;28;20570;-77
2021/08/25 06:02:23;;;;;;;5.33;4.17;;;;;;;11.17;90.30;101073.97;5040337;28;20373;-78
2021/08/25 06:04:51;;;;;;;6.27;4.20;;;;;;;11.22;89.98;101072.16;5040745;28;20211;-78
2021/08/25 06:07:17;;;;;;;4.20;3.80;;;;;;;11.32;90.12;101078.16;5040287;28;20273;-78
2021/08/25 06:09:44;;;;;;;5.70;3.70;;;;;;;11.27;89.74;101093.88;5040839;28;20316;-76
2021/08/25 06:12:10;;;;;;;6.30;4.07;;;;;;;11.32;90.25;101080.78;5040863;28;20612;-77
2021/08/25 06:14:38;;;;;;;5.30;4.30;;;;;;;11.26;90.86;101057.31;5040834;28;20207;-78
2021/08/25 06:17:05;;;;;;;5.27;4.77;;;;;;;11.31;91.45;101038.06;5041653;28;20220;-76
2021/08/25 06:19:31;;;;;;;5.77;4.17;;;;;;;11.43;91.36;101033.56;5040270;28;20791;-80
2021/08/25 06:21:59;;;;;;;4.67;4.10;;;;;;;11.52;90.41;101046.53;5040357;28;20688;-78
2021/08/25 06:24:25;;;;;;;4.17;3.77;;;;;;;11.60;89.64;101076.06;5039612;28;20211;-79
2021/08/25 06:26:51;;;;;;;4.10;3.40;;;;;;;11.70;88.97;101100.34;5042470;28;20469;-79
2021/08/25 06:29:18;;;;;;;5.00;4.30;;;;;;;11.75;88.89;101119.44;5045176;28;20208;-77
2021/08/25 06:31:44;;;;;;;4.70;4.27;;;;;;;11.77;89.09;101119.44;5045987;28;20607;-80
2021/08/25 06:34:10;;;;;;;4.30;3.90;;;;;;;11.85;89.31;101099.25;5045803;28;20246;-80
2021/08/25 06:36:36;;;;;;;4.67;4.27;;;;;;;11.94;89.09;101109.66;5045943;28;20232;-79
2021/08/25 06:39:04;;;;;;;5.70;5.17;;;;;;;11.99;89.44;101107.84;5044229;28;20279;-78
2021/08/25 06:41:30;;;;;;;5.03;4.00;;;;;;;12.05;89.77;101096.41;5042146;28;20293;-76
2021/08/25 06:43:57;;;;;;;4.23;3.83;;;;;;;12.02;89.37;101097.31;5040661;28;20274;-80
2021/08/25 06:46:23;;;;;;;6.30;4.67;;;;;;;12.02;90.17;101086.84;5044444;28;20205;-80
2021/08/25 06:48:50;;;;;;;5.43;4.50;;;;;;;12.03;90.23;101074.63;5046554;28;20207;-79
2021/08/25 06:51:16;;;;;;;6.50;4.70;;;;;;;12.01;90.03;101084.25;5049218;28;20265;-79
2021/08/25 06:53:42;;;;;;;4.53;4.13;;;;;;;11.97;90.98;101072.97;5049052;28;20207;-81
2021/08/25 06:56:10;;;;;;;4.80;4.37;;;;;;;11.98;91.74;101043.31;5049521;28;20268;-81
2021/08/25 06:58:36;;;;;;;5.77;4.07;;;;;;;12.01;92.56;101017.09;5047320;28;20245;-80
2021/08/25 07:01:03;;;;;;;5.10;4.57;;;;;;;12.09;92.49;100999.53;5044795;28;20645;-82
2021/08/25 07:03:29;;;;;;;6.60;4.37;;;;;;;12.22;92.00;101017.63;5046022;28;20253;-79
2021/08/25 07:05:55;;;;;;;5.97;4.83;;;;;;;12.24;90.89;101060.34;5045482;28;20235;-80
2021/08/25 07:08:22;;;;;;;6.53;4.50;;;;;;;12.32;90.93;101063.72;5045719;28;20207;-81
2021/08/25 07:10:48;;;;;;;6.00;4.77;;;;;;;12.46;90.60;101074.81;5046929;28;20726;-80
2021/08/25 07:13:17;;;;;;;5.80;4.40;;;;;;;12.49;89.45;101121.06;5046988;28;20214;-81
2021/08/25 07:15:43;;;;;;;5.07;4.53;;;;;;;12.60;90.00;101110.41;5047766;28;20208;-82
2021/08/25 07:18:10;;;;;;;4.90;4.50;;;;;;;12.77;89.74;101107.50;5046686;28;20211;-75
2021/08/25 07:20:36;;;;;;;4.90;4.50;;;;;;;12.96;88.36;101132.47;5043869;28;20231;-77
2021/08/25 07:23:02;;;;;;;5.50;4.07;;;;;;;13.17;87.84;101157.44;5047851;28;20208;-81
2021/08/25 07:25:29;;;;;;;4.53;4.13;;;;;;;13.37;87.12;101185.94;5047815;28;20234;-78
2021/08/25 07:27:55;;;;;;;4.53;3.37;;;;;;;13.51;85.55;101259.13;5048456;28;20359;-79
2021/08/25 07:30:23;;;;;;;4.57;4.17;;;;;;;13.60;85.87;101248.47;5050116;28;20745;-81
2021/08/25 07:32:49;;;;;;;4.70;3.97;;;;;;;13.77;84.98;101261.28;5044970;28;20208;-78
2021/08/25 07:35:16;;;;;;;5.83;3.67;;;;;;;13.83;84.19;101302.28;5051885;28;20242;-81
2021/08/25 07:37:42;;;;;;;3.90;3.60;;;;;;;13.83;82.61;101366.13;5052024;28;20321;-81
2021/08/25 07:40:10;;;;;;;7.10;3.73;;;;;;;13.75;82.43;101390.78;5051730;28;20228;-82
2021/08/25 07:42:36;;;;;;;3.80;3.47;;;;;;;13.77;83.82;101311.13;5050525;28;20628;-81
2021/08/25 07:45:03;;;;;;;4.87;3.90;;;;;;;13.84;83.87;101320.63;5050717;28;20776;-80
2021/08/25 07:47:31;;;;;;;4.50;3.63;;;;;;;13.92;83.33;101345.88;5052784;28;20258;-81
2021/08/25 07:49:57;;;;;;;5.67;3.70;;;;;;;13.87;81.91;101387.94;5049073;28;20254;-81
2021/08/25 07:52:24;;;;;;;3.83;3.23;;;;;;;13.93;82.21;101382.56;5053633;28;20212;-81
2021/08/25 07:54:50;;;;;;;5.03;3.70;;;;;;;14.00;82.75;101336.97;5055012;28;20242;-79
2021/08/25 07:57:16;;;;;;;5.17;3.20;;;;;;;14.17;83.12;101341.00;5054656;28;20434;-78
2021/08/25 07:59:43;;;;;;;4.63;3.80;;;;;;;14.37;81.77;101377.38;5056652;28;20229;-82
2021/08/25 08:02:09;;;;;;;4.60;3.57;;;;;;;14.38;81.96;101384.38;5055841;28;20234;-81
2021/08/25 08:04:37;;;;;;;4.23;3.30;;;;;;;14.42;81.37;101375.56;5055526;28;20259;-79
2021/08/25 08:07:03;;;;;;;3.70;3.37;;;;;;;14.40;80.23;101417.59;5055415;28;20269;-81
2021/08/25 08:09:30;;;;;;;3.90;3.50;;;;;;;14.43;79.90;101449.09;5053048;28;20228;-81
2021/08/25 08:11:56;;;;;;;5.57;3.83;;;;;;;14.46;78.84;101479.69;5054916;28;20212;-79
2021/08/25 08:14:22;;;;;;;7.17;3.70;;;;;;;14.58;79.13;101468.09;5054001;28;20315;-82
2021/08/25 08:16:52;;;;;;;5.37;3.63;;;;;;;14.68;79.09;101441.59;5054040;28;20207;-80
2021/08/25 08:19:21;;;;;;;4.73;3.43;;;;;;;14.82;77.73;101514.94;5049937;28;20232;-80
2021/08/25 08:21:50;;;;;;;30.47;7.03;;;;;;;14.98;78.34;101494.47;5050695;28;20214;-79
2021/08/25 08:24:16;;;;;;;3.50;3.20;;;;;;;15.11;77.80;101481.94;5051405;28;20208;-82
2021/08/25 08:26:43;;;;;;;4.03;3.63;;;;;;;15.13;77.92;101480.16;5051744;28;20404;-83
2021/08/25 08:29:10;;;;;;;4.93;4.03;;;;;;;15.23;77.56;101472.94;5051881;28;20579;-80
2021/08/25 08:31:36;;;;;;;3.73;3.40;;;;;;;15.34;77.57;101470.94;5053527;28;20249;-81
2021/08/25 08:34:02;;;;;;;3.80;3.50;;;;;;;15.41;77.72;101471.66;5050817;28;20712;-81
2021/08/25 08:36:29;;;;;;;3.73;3.23;;;;;;;15.53;77.81;101470.50;5049044;28;20283;-82
2021/08/25 08:38:56;;;;;;;4.63;3.43;;;;;;;15.54;76.31;101524.84;5043138;28;20594;-81
2021/08/25 08:41:23;;;;;;;4.50;4.00;;;;;;;15.61;76.84;101506.25;5046400;28;20229;-80
2021/08/25 08:43:51;;;;;;;5.27;3.90;;;;;;;15.68;76.83;101510.50;5044127;28;20623;-81
2021/08/25 08:46:19;;;;;;;3.87;3.47;;;;;;;15.68;76.33;101533.34;5046343;28;20205;-80
2021/08/25 08:48:46;;;;;;;3.77;3.40;;;;;;;15.88;76.52;101514.47;5044149;28;20264;-83
2021/08/25 08:51:17;;;;;;;4.53;3.40;;;;;;;15.96;75.71;101536.22;5045584;28;20247;-80
2021/08/25 08:53:43;;;;;;;4.67;3.50;;;;;;;16.02;74.82;101561.56;5049153;28;20203;-83
2021/08/25 08:56:11;;;;;;;4.43;3.70;;;;;;;16.13;75.32;101527.03;5046692;28;20217;-81
2021/08/25 08:58:38;;;;;;;4.40;3.40;;;;;;;16.20;74.30;101574.28;5050661;28;20259;-81
2021/08/25 09:01:04;;;;;;;5.27;3.43;;;;;;;16.27;73.80;101591.69;5049292;28;20229;-81
2021/08/25 09:03:35;;;;;;;4.30;3.83;;;;;;;16.48;74.65;101555.13;5050959;28;20214;-80
2021/08/25 09:06:03;;;;;;;6.10;4.07;;;;;;;16.47;74.20;101566.56;5052060;28;20198;-82
2021/08/25 09:08:31;;;;;;;3.50;3.20;;;;;;;16.63;75.13;101535.41;5048930;28;20206;-76
2021/08/25 09:11:04;;;;;;;6.03;3.60;;;;;;;16.75;72.52;101624.75;5046907;28;20221;-81
2021/08/25 09:13:42;;;;;;;3.60;3.30;;;;;;;16.84;72.02;101623.69;5048933;28;20237;-81
2021/08/25 09:16:09;;;;;;;4.60;3.67;;;;;;;16.81;72.65;101605.28;5049645;28;20206;-81
2021/08/25 09:18:36;;;;;;;3.63;3.20;;;;;;;16.90;73.18;101565.47;5050070;28;20680;-78
2021/08/25 09:21:02;;;;;;;3.70;3.40;;;;;;;16.85;72.16;101607.81;5043125;28;20230;-81
2021/08/25 09:23:32;;;;;;;3.60;3.30;;;;;;;16.85;72.63;101597.28;5049907;28;20210;-81
2021/08/25 09:26:01;;;;;;;4.23;3.13;;;;;;;16.96;71.19;101627.75;5047434;28;20246;-80
2021/08/25 09:28:32;;;;;;;6.67;3.00;;;;;;;17.10;71.68;101607.16;5050293;28;20210;-80
2021/08/25 09:31:05;;;;;;;3.60;3.30;;;;;;;17.17;70.70;101658.84;5048833;28;20281;-82
2021/08/25 09:33:33;;;;;;;7.47;3.37;;;;;;;17.15;69.83;101671.22;5050502;28;20224;-83
2021/08/25 09:36:02;;;;;;;4.73;2.80;;;;;;;17.26;70.55;101637.50;5048757;28;20212;-81
2021/08/25 09:38:30;;;;;;;4.80;3.13;;;;;;;17.39;69.38;101672.31;5050073;28;20260;-79
2021/08/25 09:40:58;;;;;;;4.03;3.60;;;;;;;17.51;66.97;101781.16;5048143;28;20275;-81
2021/08/25 09:43:34;;;;;;;3.90;3.17;;;;;;;17.67;66.20;101803.59;5048817;28;20691;-82
2021/08/25 09:46:17;;;;;;;3.40;3.10;;;;;;;17.86;67.83;101735.31;5050582;28;20206;-82
2021/08/25 09:48:45;;;;;;;5.77;3.23;;;;;;;17.91;62.45;101930.69;5051343;28;20208;-80
2021/08/25 09:51:13;;;;;;;2.93;2.70;;;;;;;17.92;62.32;101941.22;5049699;28;20285;-79
2021/08/25 09:53:41;;;;;;;3.23;2.90;;;;;;;17.97;63.84;101886.47;5049724;28;20241;-82
2021/08/25 09:56:24;;;;;;;2.77;2.57;;;;;;;18.10;58.87;102071.16;5050666;28;20261;-80
2021/08/25 09:58:51;;;;;;;3.33;2.60;;;;;;;18.21;60.44;102026.78;5049310;28;20302;-80
2021/08/25 10:01:19;;;;;;;2.70;2.50;;;;;;;18.24;57.81;102098.09;5051673;28;20236;-80
2021/08/25 10:03:46;;;;;;;4.30;2.83;;;;;;;18.33;60.07;102015.91;5051600;28;20204;-79
2021/08/25 10:06:15;;;;;;;3.30;2.97;;;;;;;18.43;59.73;102004.19;5055448;28;20207;-80
2021/08/25 10:08:42;;;;;;;3.40;3.10;;;;;;;18.43;58.98;102037.69;5054203;28;20209;-79
2021/08/25 10:11:09;;;;;;;3.47;3.17;;;;;;;18.38;58.66;102036.94;5053330;28;20655;-83
2021/08/25 10:13:36;;;;;;;4.23;3.00;;;;;;;18.37;59.44;102014.91;5048493;28;20202;-82
2021/08/25 10:16:02;;;;;;;3.77;3.07;;;;;;;18.48;60.06;101956.47;5050378;28;20208;-82
2021/08/25 10:18:37;;;;;;;8.57;3.20;;;;;;;18.57;61.36;101892.75;5050064;28;20617;-81
2021/08/25 10:21:05;;;;;;;4.40;2.97;;;;;;;18.64;59.60;101930.44;5050705;28;20755;-83
2021/08/25 10:24:01;;;;;;;3.70;3.13;;;;;;;18.56;59.55;101943.88;5049493;28;20208;-83
2021/08/25 10:26:28;;;;;;;3.63;3.33;;;;;;;18.60;59.23;101937.59;5049739;28;20211;-83
2021/08/25 10:29:07;;;;;;;4.47;3.50;;;;;;;18.79;58.70;101945.91;5046712;28;20205;-83
2021/08/25 10:32:25;;;;;;;3.20;2.77;;;;;;;18.88;57.76;101959.78;5050244;28;20260;-81
2021/08/25 10:35:25;;;;;;;3.27;2.77;;;;;;;18.99;57.92;101965.66;5049752;28;20207;-79
2021/08/25 10:37:53;;;;;;;4.07;2.47;;;;;;;19.00;55.64;102065.28;5046503;28;21890;-82
2021/08/25 10:40:31;;;;;;;3.00;2.70;;;;;;;19.08;54.72;102108.28;5049309;28;21948;-81
2021/08/25 10:43:01;;;;;;;2.83;2.20;;;;;;;19.06;53.39;102163.03;5047474;28;20320;-82
2021/08/25 10:45:55;;;;;;;3.97;2.80;;;;;;;19.07;54.35;102116.25;5050897;28;20213;-81
2021/08/25 10:48:38;;;;;;;3.23;2.70;;;;;;;19.05;55.09;102069.53;5053703;28;20222;-81
2021/08/25 10:51:05;;;;;;;3.57;2.50;;;;;;;19.17;55.79;102039.19;5052776;28;20233;-83
2021/08/25 10:53:39;;;;;;;3.27;2.97;;;;;;;19.29;55.07;102037.97;5053601;28;20458;-81
2021/08/25 10:56:07;;;;;;;4.13;3.20;;;;;;;19.26;55.21;102027.47;5050997;28;20213;-81
2021/08/25 10:58:45;;;;;;;3.87;3.37;;;;;;;19.33;56.23;101988.44;5049995;28;20213;-80
2021/08/25 11:01:26;;;;;;;4.50;2.90;;;;;;;19.43;55.43;102001.34;5051370;28;20240;-79
2021/08/25 11:03:53;;;;;;;3.20;2.80;;;;;;;19.52;55.82;101989.56;5051935;28;20259;-82
2021/08/25 11:06:31;;;;;;;3.70;2.97;;;;;;;19.65;54.72;102029.81;5051524;28;20260;-81
2021/08/25 11:09:15;;;;;;;4.23;3.60;;;;;;;19.63;52.68;102081.97;5052858;28;20261;-82
2021/08/25 11:11:45;;;;;;;4.37;3.07;;;;;;;19.74;53.63;102058.72;5053699;28;20216;-81
2021/08/25 11:14:16;;;;;;;3.53;2.87;;;;;;;19.74;53.56;102045.47;5051891;28;20223;-81
2021/08/25 11:16:43;;;;;;;3.57;3.23;;;;;;;19.88;53.98;102018.53;5049957;28;20286;-81
2021/08/25 11:19:20;;;;;;;3.90;3.43;;;;;;;19.84;53.82;102038.94;5051101;28;20216;-81
2021/08/25 11:21:47;;;;;;;3.50;3.20;;;;;;;20.02;53.98;102005.66;5048672;28;20227;-81
2021/08/25 11:24:14;;;;;;;3.80;3.27;;;;;;;20.24;53.29;102016.41;5046862;28;20246;-81
2021/08/25 11:26:40;;;;;;;3.50;3.20;;;;;;;20.34;51.83;102059.41;5048308;28;20258;-80
2021/08/25 11:29:16;;;;;;;4.17;3.13;;;;;;;20.44;53.47;102014.88;5049538;28;20217;-80